createdAt,value
2016-09-07T00:00:26.801Z,0
2016-09-07T00:01:26.799Z,0
2016-09-07T00:02:26.790Z,0
2016-09-07T00:03:26.778Z,0
2016-09-07T00:04:26.754Z,0
2016-09-07T00:05:27.089Z,0
2016-09-07T00:06:26.714Z,0
2016-09-07T00:07:26.725Z,0
2016-09-07T00:08:26.692Z,0
2016-09-07T00:09:27.010Z,0
2016-09-07T00:10:26.681Z,0
2016-09-07T00:11:26.649Z,0
2016-09-07T00:12:26.632Z,0
2016-09-07T00:13:26.952Z,0
2016-09-07T00:14:26.607Z,0
2016-09-07T00:15:26.588Z,0
2016-09-07T00:16:26.613Z,0
2016-09-07T00:17:26.587Z,0
2016-09-07T00:18:26.596Z,0
2016-09-07T00:19:26.572Z,0
2016-09-07T00:20:26.537Z,0
2016-09-07T00:21:26.526Z,0
2016-09-07T00:22:26.515Z,0
2016-09-07T00:23:26.505Z,0
2016-09-07T00:24:26.505Z,0
2016-09-07T00:25:26.481Z,0
2016-09-07T00:26:26.479Z,0
2016-09-07T00:27:26.766Z,0
2016-09-07T00:28:26.454Z,0
2016-09-07T00:29:26.411Z,0
2016-09-07T00:30:26.431Z,0
2016-09-07T00:31:26.414Z,0
2016-09-07T00:32:26.400Z,0
2016-09-07T00:33:26.379Z,0
2016-09-07T00:34:26.363Z,0
2016-09-07T00:35:26.373Z,0
2016-09-07T00:36:26.353Z,0
2016-09-07T00:37:26.341Z,0
2016-09-07T00:38:26.321Z,0
2016-09-07T00:39:26.348Z,0
2016-09-07T00:40:26.306Z,0
2016-09-07T00:41:26.283Z,0
2016-09-07T00:42:26.296Z,0
2016-09-07T00:43:26.303Z,0
2016-09-07T00:44:26.267Z,0
2016-09-07T00:45:26.259Z,0
2016-09-07T00:46:26.238Z,0
2016-09-07T00:47:26.218Z,0
2016-09-07T00:48:26.216Z,0
2016-09-07T00:49:26.195Z,0
2016-09-07T00:50:26.193Z,0
2016-09-07T00:51:26.207Z,0
2016-09-07T00:52:26.136Z,0
2016-09-07T00:53:26.145Z,0
2016-09-07T00:54:26.161Z,0
2016-09-07T00:55:26.146Z,0
2016-09-07T00:56:26.138Z,0
2016-09-07T00:57:26.102Z,0
2016-09-07T00:58:26.098Z,0
2016-09-07T00:59:26.097Z,0
2016-09-07T01:00:26.071Z,0
2016-09-07T01:01:26.094Z,0
2016-09-07T01:02:26.055Z,0
2016-09-07T01:03:26.042Z,0
2016-09-07T01:04:26.028Z,0
2016-09-07T01:05:26.107Z,0
2016-09-07T01:06:26.009Z,0
2016-09-07T01:07:26.012Z,0
2016-09-07T01:08:25.978Z,0
2016-09-07T01:09:26.001Z,0
2016-09-07T01:10:25.972Z,0
2016-09-07T01:11:25.956Z,0
2016-09-07T01:12:26.246Z,0
2016-09-07T01:13:25.908Z,0
2016-09-07T01:14:25.940Z,0
2016-09-07T01:15:25.910Z,0
2016-09-07T01:16:25.901Z,0
2016-09-07T01:17:25.872Z,0
2016-09-07T01:18:25.862Z,0
2016-09-07T01:19:25.854Z,0
2016-09-07T01:20:25.867Z,0
2016-09-07T01:21:25.830Z,0
2016-09-07T01:22:25.843Z,0
2016-09-07T01:23:25.824Z,0
2016-09-07T01:24:25.794Z,0
2016-09-07T01:25:25.799Z,0
2016-09-07T01:26:25.788Z,0
2016-09-07T01:27:25.793Z,0
2016-09-07T01:28:25.772Z,0
2016-09-07T01:29:25.762Z,0
2016-09-07T01:30:25.748Z,0
2016-09-07T01:31:26.028Z,0
2016-09-07T01:32:25.719Z,0
2016-09-07T01:33:25.718Z,0
2016-09-07T01:34:25.677Z,0
2016-09-07T01:35:25.692Z,0
2016-09-07T01:36:25.699Z,0
2016-09-07T01:37:25.679Z,0
2016-09-07T01:38:25.652Z,0
2016-09-07T01:39:25.659Z,0
2016-09-07T01:40:25.659Z,0
2016-09-07T01:41:25.654Z,0
2016-09-07T01:42:25.621Z,0
2016-09-07T01:43:25.583Z,0
2016-09-07T01:44:25.607Z,0
2016-09-07T01:45:25.585Z,0
2016-09-07T01:46:25.555Z,0
2016-09-07T01:47:25.578Z,0
2016-09-07T01:48:25.560Z,0
2016-09-07T01:49:25.595Z,0
2016-09-07T01:50:25.565Z,0
2016-09-07T01:51:25.530Z,0
2016-09-07T01:52:25.536Z,0
2016-09-07T01:53:25.521Z,0
2016-09-07T01:54:25.498Z,0
2016-09-07T01:55:25.480Z,0
2016-09-07T01:56:25.506Z,0
2016-09-07T01:57:25.471Z,0
2016-09-07T01:58:25.489Z,0
2016-09-07T01:59:25.463Z,0
2016-09-07T02:00:25.458Z,0
2016-09-07T02:01:25.445Z,0
2016-09-07T02:02:25.432Z,0
2016-09-07T02:03:25.418Z,0
2016-09-07T02:04:25.414Z,0
2016-09-07T02:05:25.408Z,0
2016-09-07T02:06:25.378Z,0
2016-09-07T02:07:25.389Z,0
2016-09-07T02:08:25.353Z,0
2016-09-07T02:09:25.354Z,0
2016-09-07T02:10:25.341Z,0
2016-09-07T02:11:25.365Z,0
2016-09-07T02:12:25.342Z,0
2016-09-07T02:13:25.314Z,0
2016-09-07T02:14:25.314Z,0
2016-09-07T02:15:25.316Z,0
2016-09-07T02:16:25.297Z,0
2016-09-07T02:17:25.295Z,0
2016-09-07T02:18:25.306Z,0
2016-09-07T02:19:25.242Z,0
2016-09-07T02:20:25.258Z,0
2016-09-07T02:21:25.231Z,0
2016-09-07T02:22:25.254Z,0
2016-09-07T02:23:25.219Z,0
2016-09-07T02:24:25.217Z,0
2016-09-07T02:25:25.215Z,0
2016-09-07T02:26:25.209Z,0
2016-09-07T02:27:25.194Z,0
2016-09-07T02:28:25.181Z,0
2016-09-07T02:29:25.187Z,0
2016-09-07T02:30:25.163Z,0
2016-09-07T02:31:25.154Z,0
2016-09-07T02:32:25.128Z,0
2016-09-07T02:33:25.128Z,0
2016-09-07T02:34:25.129Z,0
2016-09-07T02:35:25.149Z,0
2016-09-07T02:36:25.116Z,0
2016-09-07T02:37:25.106Z,0
2016-09-07T02:38:25.094Z,0
2016-09-07T02:39:25.085Z,0
2016-09-07T02:40:25.081Z,0
2016-09-07T02:41:25.064Z,0
2016-09-07T02:42:25.076Z,0
2016-09-07T02:43:25.063Z,0
2016-09-07T02:44:25.039Z,0
2016-09-07T02:45:25.046Z,0
2016-09-07T02:46:25.019Z,0
2016-09-07T02:47:25.021Z,0
2016-09-07T02:48:25.012Z,0
2016-09-07T02:49:24.980Z,0
2016-09-07T02:50:25.037Z,0
2016-09-07T02:51:24.999Z,0
2016-09-07T02:52:24.963Z,0
2016-09-07T02:53:24.993Z,0
2016-09-07T02:54:24.946Z,0
2016-09-07T02:55:24.934Z,0
2016-09-07T02:56:24.936Z,0
2016-09-07T02:57:24.937Z,0
2016-09-07T02:58:24.923Z,0
2016-09-07T02:59:24.925Z,0
2016-09-07T03:00:24.893Z,0
2016-09-07T03:01:24.885Z,0
2016-09-07T03:02:24.889Z,0
2016-09-07T03:03:24.858Z,0
2016-09-07T03:04:24.869Z,0
2016-09-07T03:05:25.177Z,0
2016-09-07T03:06:25.306Z,0
2016-09-07T03:07:24.848Z,0
2016-09-07T03:08:24.850Z,0
2016-09-07T03:09:24.835Z,0
2016-09-07T03:10:24.799Z,0
2016-09-07T03:11:24.782Z,0
2016-09-07T03:12:24.785Z,0
2016-09-07T03:13:24.786Z,0
2016-09-07T03:14:24.777Z,0
2016-09-07T03:15:24.773Z,0
2016-09-07T03:16:24.761Z,0
2016-09-07T03:17:24.741Z,0
2016-09-07T03:18:24.761Z,0
2016-09-07T03:19:24.740Z,0
2016-09-07T03:20:24.756Z,0
2016-09-07T03:21:24.733Z,0
2016-09-07T03:22:24.713Z,0
2016-09-07T03:23:24.698Z,0
2016-09-07T03:24:24.715Z,0
2016-09-07T03:25:24.692Z,0
2016-09-07T03:26:24.683Z,0
2016-09-07T03:27:24.675Z,0
2016-09-07T03:28:24.647Z,0
2016-09-07T03:29:24.629Z,0
2016-09-07T03:30:24.608Z,0
2016-09-07T03:31:24.606Z,0
2016-09-07T03:32:24.618Z,0
2016-09-07T03:33:24.607Z,0
2016-09-07T03:34:24.596Z,0
2016-09-07T03:35:24.596Z,0
2016-09-07T03:36:24.580Z,0
2016-09-07T03:37:24.598Z,0
2016-09-07T03:38:24.571Z,0
2016-09-07T03:39:24.562Z,0
2016-09-07T03:40:24.550Z,0
2016-09-07T03:41:24.530Z,0
2016-09-07T03:42:24.530Z,0
2016-09-07T03:43:24.512Z,0
2016-09-07T03:44:24.520Z,0
2016-09-07T03:45:24.504Z,0
2016-09-07T03:46:24.480Z,0
2016-09-07T03:47:24.508Z,0
2016-09-07T03:48:24.458Z,0
2016-09-07T03:49:24.447Z,0
2016-09-07T03:50:24.461Z,0
2016-09-07T03:51:24.436Z,0
2016-09-07T03:52:24.447Z,0
2016-09-07T03:53:24.440Z,0
2016-09-07T03:54:24.415Z,0
2016-09-07T03:55:24.426Z,0
2016-09-07T03:56:24.386Z,0
2016-09-07T03:57:24.419Z,0
2016-09-07T03:58:24.391Z,0
2016-09-07T03:59:24.384Z,0
2016-09-07T04:00:24.362Z,0
2016-09-07T04:01:24.354Z,0
2016-09-07T04:02:24.360Z,0
2016-09-07T04:03:24.348Z,0
2016-09-07T04:04:24.312Z,0
2016-09-07T04:05:24.346Z,0
2016-09-07T04:06:25.076Z,0
2016-09-07T04:07:24.316Z,0
2016-09-07T04:08:24.300Z,0
2016-09-07T04:09:24.298Z,4
2016-09-07T04:10:24.291Z,0
2016-09-07T04:11:24.244Z,0
2016-09-07T04:12:24.266Z,4
2016-09-07T04:13:24.254Z,4
2016-09-07T04:14:24.240Z,4
2016-09-07T04:15:24.267Z,4
2016-09-07T04:16:24.253Z,4
2016-09-07T04:17:24.236Z,8
2016-09-07T04:18:24.212Z,12
2016-09-07T04:19:24.209Z,16
2016-09-07T04:20:24.212Z,16
2016-09-07T04:21:24.199Z,20
2016-09-07T04:22:24.197Z,24
2016-09-07T04:23:24.180Z,32
2016-09-07T04:24:24.163Z,36
2016-09-07T04:25:24.173Z,44
2016-09-07T04:26:24.139Z,52
2016-09-07T04:27:24.143Z,60
2016-09-07T04:28:24.108Z,72
2016-09-07T04:29:24.119Z,92
2016-09-07T04:30:24.100Z,108
2016-09-07T04:31:24.109Z,128
2016-09-07T04:32:24.086Z,144
2016-09-07T04:33:24.386Z,172
2016-09-07T04:34:24.087Z,192
2016-09-07T04:35:24.076Z,220
2016-09-07T04:36:24.060Z,252
2016-09-07T04:37:24.041Z,284
2016-09-07T04:38:24.050Z,324
2016-09-07T04:39:24.029Z,364
2016-09-07T04:40:24.034Z,404
2016-09-07T04:41:24.027Z,448
2016-09-07T04:42:23.998Z,496
2016-09-07T04:43:24.023Z,544
2016-09-07T04:44:23.993Z,596
2016-09-07T04:45:24.279Z,656
2016-09-07T04:46:23.963Z,712
2016-09-07T04:47:23.963Z,768
2016-09-07T04:48:23.981Z,828
2016-09-07T04:49:23.945Z,892
2016-09-07T04:50:23.943Z,952
2016-09-07T04:51:23.936Z,1036
2016-09-07T04:52:23.939Z,1204
2016-09-07T04:53:23.913Z,1336
2016-09-07T04:54:23.909Z,1384
2016-09-07T04:55:23.916Z,1436
2016-09-07T04:56:23.894Z,1520
2016-09-07T04:57:23.888Z,1656
2016-09-07T04:58:23.869Z,1848
2016-09-07T04:59:23.867Z,1992
2016-09-07T05:00:23.865Z,2076
2016-09-07T05:01:23.845Z,2200
2016-09-07T05:02:23.835Z,2360
2016-09-07T05:03:23.820Z,2544
2016-09-07T05:04:23.827Z,2696
2016-09-07T05:05:23.801Z,2860
2016-09-07T05:06:24.353Z,3024
2016-09-07T05:07:23.787Z,3212
2016-09-07T05:08:23.808Z,3268
2016-09-07T05:09:23.770Z,3444
2016-09-07T05:10:24.086Z,3604
2016-09-07T05:11:23.746Z,3760
2016-09-07T05:12:23.774Z,3776
2016-09-07T05:13:23.742Z,3260
2016-09-07T05:14:23.733Z,2812
2016-09-07T05:15:23.719Z,2876
2016-09-07T05:16:23.726Z,2948
2016-09-07T05:17:23.728Z,3028
2016-09-07T05:18:23.688Z,3144
2016-09-07T05:19:23.669Z,4404
2016-09-07T05:20:23.704Z,5964
2016-09-07T05:21:23.682Z,6712
2016-09-07T05:22:23.688Z,7156
2016-09-07T05:23:23.672Z,7004
2016-09-07T05:24:23.655Z,6268
2016-09-07T05:25:23.638Z,5808
2016-09-07T05:26:23.628Z,5840
2016-09-07T05:27:23.619Z,6008
2016-09-07T05:28:23.619Z,6248
2016-09-07T05:29:23.606Z,6408
2016-09-07T05:30:23.620Z,7116
2016-09-07T05:31:23.581Z,8876
2016-09-07T05:32:23.586Z,9576
2016-09-07T05:33:23.587Z,10268
2016-09-07T05:34:23.562Z,11596
2016-09-07T05:35:23.563Z,11512
2016-09-07T05:36:23.536Z,11232
2016-09-07T05:37:23.526Z,10288
2016-09-07T05:38:23.543Z,10200
2016-09-07T05:39:23.538Z,10672
2016-09-07T05:40:23.531Z,12368
2016-09-07T05:41:23.507Z,11728
2016-09-07T05:42:23.857Z,10340
2016-09-07T05:43:23.485Z,8512
2016-09-07T05:44:23.512Z,9580
2016-09-07T05:45:23.466Z,13528
2016-09-07T05:46:23.463Z,14324
2016-09-07T05:47:23.450Z,12396
2016-09-07T05:48:23.451Z,12416
2016-09-07T05:49:23.432Z,13156
2016-09-07T05:50:23.412Z,13928
2016-09-07T05:51:23.419Z,13572
2016-09-07T05:52:23.434Z,14052
2016-09-07T05:53:23.432Z,14220
2016-09-07T05:54:23.385Z,14016
2016-09-07T05:55:23.405Z,14220
2016-09-07T05:56:23.405Z,14664
2016-09-07T05:57:23.392Z,12820
2016-09-07T05:58:23.370Z,14036
2016-09-07T05:59:23.358Z,15840
2016-09-07T06:00:23.368Z,16672
2016-09-07T06:01:23.366Z,15488
2016-09-07T06:02:23.345Z,16224
2016-09-07T06:03:23.345Z,17120
2016-09-07T06:04:23.341Z,15772
2016-09-07T06:05:23.321Z,18560
2016-09-07T06:06:23.303Z,20160
2016-09-07T06:07:23.299Z,18272
2016-09-07T06:08:23.279Z,18272
2016-09-07T06:09:23.279Z,18432
2016-09-07T06:10:23.287Z,20160
2016-09-07T06:11:23.270Z,23616
2016-09-07T06:12:23.285Z,26656
2016-09-07T06:13:23.256Z,26496
2016-09-07T06:14:23.253Z,25408
2016-09-07T06:15:23.243Z,21824
2016-09-07T06:16:23.229Z,21632
2016-09-07T06:17:23.203Z,23936
2016-09-07T06:18:23.211Z,25504
2016-09-07T06:19:23.236Z,28352
2016-09-07T06:20:23.186Z,27456
2016-09-07T06:21:23.220Z,24512
2016-09-07T06:22:23.183Z,23904
2016-09-07T06:23:23.176Z,24096
2016-09-07T06:24:23.181Z,20224
2016-09-07T06:25:23.155Z,24512
2016-09-07T06:26:23.132Z,26080
2016-09-07T06:27:23.144Z,27168
2016-09-07T06:28:23.159Z,23360
2016-09-07T06:29:23.150Z,21184
2016-09-07T06:30:23.114Z,21856
2016-09-07T06:31:23.118Z,18400
2016-09-07T06:32:23.120Z,16576
2016-09-07T06:33:23.114Z,14736
2016-09-07T06:34:23.105Z,14248
2016-09-07T06:35:23.081Z,19968
2016-09-07T06:36:23.093Z,26656
2016-09-07T06:37:23.055Z,26848
2016-09-07T06:38:23.069Z,31008
2016-09-07T06:39:23.068Z,34656
2016-09-07T06:40:23.044Z,31616
2016-09-07T06:41:23.061Z,30336
2016-09-07T06:42:23.024Z,27552
2016-09-07T06:43:23.024Z,27040
2016-09-07T06:44:23.033Z,33760
2016-09-07T06:45:23.029Z,33888
2016-09-07T06:46:23.011Z,32736
2016-09-07T06:47:23.025Z,37568
2016-09-07T06:48:23.011Z,34592
2016-09-07T06:49:22.988Z,29088
2016-09-07T06:50:22.978Z,30560
2016-09-07T06:51:22.960Z,35680
2016-09-07T06:52:22.996Z,34656
2016-09-07T06:53:22.979Z,35072
2016-09-07T06:54:22.947Z,36864
2016-09-07T06:55:22.949Z,41312
2016-09-07T06:56:22.960Z,41408
2016-09-07T06:57:22.952Z,38272
2016-09-07T06:58:22.938Z,33120
2016-09-07T06:59:23.240Z,32128
2016-09-07T07:00:22.919Z,34272
2016-09-07T07:01:22.920Z,38976
2016-09-07T07:02:22.919Z,47488
2016-09-07T07:03:22.912Z,46944
2016-09-07T07:04:22.908Z,34240
2016-09-07T07:05:22.903Z,23552
2016-09-07T07:06:22.869Z,21920
2016-09-07T07:07:23.200Z,23616
2016-09-07T07:08:22.883Z,28928
2016-09-07T07:09:22.864Z,39296
2016-09-07T07:10:22.880Z,40480
2016-09-07T07:11:22.860Z,39776
2016-09-07T07:12:22.872Z,40320
2016-09-07T07:13:22.818Z,37472
2016-09-07T07:14:22.844Z,34880
2016-09-07T07:15:22.830Z,38464
2016-09-07T07:16:22.827Z,43392
2016-09-07T07:17:22.843Z,40864
2016-09-07T07:18:22.825Z,36928
2016-09-07T07:19:22.819Z,37632
2016-09-07T07:20:22.779Z,35232
2016-09-07T07:21:22.798Z,35072
2016-09-07T07:22:22.805Z,34432
2016-09-07T07:23:22.793Z,41056
2016-09-07T07:24:22.770Z,43648
2016-09-07T07:25:22.785Z,36960
2016-09-07T07:26:22.771Z,40896
2016-09-07T07:27:22.771Z,42752
2016-09-07T07:28:22.764Z,45664
2016-09-07T07:29:22.742Z,46624
2016-09-07T07:30:22.774Z,51296
2016-09-07T07:31:22.756Z,54176
2016-09-07T07:32:22.737Z,54336
2016-09-07T07:33:22.738Z,54784
2016-09-07T07:34:22.725Z,38208
2016-09-07T07:35:22.727Z,32576
2016-09-07T07:36:23.003Z,29472
2016-09-07T07:37:22.722Z,33984
2016-09-07T07:38:22.714Z,50912
2016-09-07T07:39:22.682Z,59040
2016-09-07T07:40:22.663Z,46560
2016-09-07T07:41:22.695Z,44128
2016-09-07T07:42:22.666Z,49728
2016-09-07T07:43:22.673Z,54624
2016-09-07T07:44:22.634Z,51744
2016-09-07T07:45:22.649Z,54464
2016-09-07T07:46:22.626Z,51328
2016-09-07T07:47:22.627Z,48800
2016-09-07T07:48:22.633Z,48032
2016-09-07T07:49:22.623Z,47072
2016-09-07T07:50:22.650Z,44864
2016-09-07T07:51:22.594Z,52448
2016-09-07T07:52:22.611Z,65152
2016-09-07T07:53:22.612Z,62112
2016-09-07T07:54:22.611Z,46720
2016-09-07T07:55:22.606Z,48768
2016-09-07T07:56:22.591Z,49504
2016-09-07T07:57:22.857Z,49376
2016-09-07T07:58:22.587Z,55616
2016-09-07T07:59:22.886Z,57376
2016-09-07T08:00:22.548Z,58112
2016-09-07T08:01:22.537Z,55168
2016-09-07T08:02:22.554Z,46016
2016-09-07T08:03:22.554Z,52064
2016-09-07T08:04:22.561Z,54976
2016-09-07T08:05:22.549Z,58080
2016-09-07T08:06:22.808Z,60928
2016-09-07T08:07:22.686Z,61408
2016-09-07T08:08:22.526Z,58592
2016-09-07T08:09:22.523Z,57472
2016-09-07T08:10:22.520Z,50464
2016-09-07T08:11:22.516Z,53216
2016-09-07T08:12:22.493Z,55232
2016-09-07T08:13:22.503Z,54976
2016-09-07T08:14:22.479Z,56096
2016-09-07T08:15:22.500Z,61536
2016-09-07T08:16:22.498Z,73248
2016-09-07T08:17:22.472Z,75296
2016-09-07T08:18:22.464Z,67136
2016-09-07T08:19:22.477Z,65152
2016-09-07T08:20:22.477Z,57984
2016-09-07T08:21:22.488Z,59360
2016-09-07T08:22:22.468Z,77440
2016-09-07T08:23:22.465Z,70080
2016-09-07T08:24:22.453Z,62784
2016-09-07T08:25:22.436Z,61248
2016-09-07T08:26:22.448Z,62400
2016-09-07T08:27:22.423Z,59808
2016-09-07T08:28:22.438Z,62464
2016-09-07T08:29:22.399Z,67008
2016-09-07T08:30:22.402Z,73696
2016-09-07T08:31:22.699Z,77984
2016-09-07T08:32:22.403Z,78176
2016-09-07T08:33:22.415Z,73824
2016-09-07T08:34:22.395Z,57056
2016-09-07T08:35:22.423Z,56416
2016-09-07T08:36:22.397Z,68416
2016-09-07T08:37:22.403Z,59520
2016-09-07T08:38:22.398Z,55200
2016-09-07T08:39:22.394Z,55744
2016-09-07T08:40:22.409Z,61248
2016-09-07T08:41:22.399Z,71136
2016-09-07T08:42:22.366Z,68192
2016-09-07T08:43:22.388Z,65440
2016-09-07T08:44:22.387Z,67040
2016-09-07T08:45:22.339Z,65216
2016-09-07T08:46:22.374Z,58976
2016-09-07T08:47:22.374Z,62336
2016-09-07T08:48:22.366Z,70688
2016-09-07T08:49:22.345Z,79360
2016-09-07T08:50:22.345Z,89472
2016-09-07T08:51:22.352Z,95232
2016-09-07T08:52:22.317Z,93248
2016-09-07T08:53:22.641Z,91232
2016-09-07T08:54:22.330Z,87200
2016-09-07T08:55:22.367Z,82176
2016-09-07T08:56:22.345Z,79584
2016-09-07T08:57:22.343Z,79616
2016-09-07T08:58:22.351Z,80608
2016-09-07T08:59:22.347Z,80160
2016-09-07T09:00:22.331Z,80992
2016-09-07T09:01:22.311Z,83488
2016-09-07T09:02:22.320Z,85824
2016-09-07T09:03:22.327Z,87008
2016-09-07T09:04:22.310Z,86944
2016-09-07T09:05:22.324Z,84192
2016-09-07T09:06:22.295Z,81536
2016-09-07T09:07:22.314Z,82816
2016-09-07T09:08:22.295Z,85248
2016-09-07T09:09:22.316Z,85856
2016-09-07T09:10:22.306Z,87392
2016-09-07T09:11:22.285Z,91744
2016-09-07T09:12:22.319Z,92960
2016-09-07T09:13:22.304Z,90816
2016-09-07T09:14:22.285Z,88224
2016-09-07T09:15:22.282Z,86144
2016-09-07T09:16:22.276Z,85248
2016-09-07T09:17:22.280Z,86464
2016-09-07T09:18:22.307Z,87712
2016-09-07T09:19:22.288Z,85408
2016-09-07T09:20:22.295Z,84960
2016-09-07T09:21:22.262Z,89760
2016-09-07T09:22:22.248Z,92832
2016-09-07T09:23:22.261Z,92640
2016-09-07T09:24:22.275Z,91296
2016-09-07T09:25:22.264Z,90112
2016-09-07T09:26:22.273Z,88000
2016-09-07T09:27:22.258Z,86368
2016-09-07T09:28:22.272Z,85824
2016-09-07T09:29:22.263Z,87904
2016-09-07T09:30:22.258Z,87712
2016-09-07T09:31:22.255Z,86112
2016-09-07T09:32:22.265Z,84832
2016-09-07T09:33:22.233Z,86816
2016-09-07T09:34:22.247Z,89120
2016-09-07T09:35:22.264Z,90048
2016-09-07T09:36:22.232Z,90176
2016-09-07T09:37:22.548Z,90560
2016-09-07T09:38:22.225Z,90816
2016-09-07T09:39:22.238Z,89280
2016-09-07T09:40:22.231Z,86272
2016-09-07T09:41:22.232Z,83552
2016-09-07T09:42:22.226Z,81600
2016-09-07T09:43:22.222Z,81952
2016-09-07T09:44:22.226Z,86624
2016-09-07T09:45:22.223Z,92640
2016-09-07T09:46:22.213Z,100480
2016-09-07T09:47:22.225Z,116320
2016-09-07T09:48:22.224Z,119840
2016-09-07T09:49:22.218Z,102496
2016-09-07T09:50:22.194Z,78656
2016-09-07T09:51:22.196Z,70720
2016-09-07T09:52:22.211Z,76224
2016-09-07T09:53:22.209Z,78752
2016-09-07T09:54:22.191Z,80864
2016-09-07T09:55:22.204Z,83776
2016-09-07T09:56:22.203Z,80992
2016-09-07T09:57:22.203Z,85888
2016-09-07T09:58:22.195Z,87648
2016-09-07T09:59:22.192Z,82272
2016-09-07T10:00:22.205Z,80736
2016-09-07T10:01:22.186Z,80448
2016-09-07T10:02:22.195Z,78976
2016-09-07T10:03:22.181Z,76704
2016-09-07T10:04:22.185Z,77824
2016-09-07T10:05:22.180Z,79680
2016-09-07T10:06:22.167Z,88064
2016-09-07T10:07:22.356Z,100768
2016-09-07T10:08:22.199Z,100960
2016-09-07T10:09:22.178Z,88384
2016-09-07T10:10:22.210Z,78976
2016-09-07T10:11:22.173Z,73216
2016-09-07T10:12:22.164Z,66112
2016-09-07T10:13:22.149Z,65504
2016-09-07T10:14:22.175Z,66400
2016-09-07T10:15:22.154Z,66048
2016-09-07T10:16:22.144Z,79616
2016-09-07T10:17:22.156Z,102112
2016-09-07T10:18:22.140Z,109472
2016-09-07T10:19:22.152Z,96512
2016-09-07T10:20:22.158Z,83424
2016-09-07T10:21:22.174Z,75904
2016-09-07T10:22:22.156Z,74304
2016-09-07T10:23:22.435Z,79520
2016-09-07T10:24:22.122Z,76960
2016-09-07T10:25:22.148Z,76064
2016-09-07T10:26:22.167Z,69312
2016-09-07T10:27:22.113Z,70688
2016-09-07T10:28:22.140Z,70976
2016-09-07T10:29:22.121Z,76800
2016-09-07T10:30:22.141Z,81344
2016-09-07T10:31:22.125Z,88992
2016-09-07T10:32:22.138Z,97248
2016-09-07T10:33:22.142Z,102368
2016-09-07T10:34:22.103Z,107616
2016-09-07T10:35:22.119Z,113856
2016-09-07T10:36:22.110Z,115616
2016-09-07T10:37:22.120Z,114720
2016-09-07T10:38:22.123Z,115200
2016-09-07T10:39:22.113Z,117440
2016-09-07T10:40:22.925Z,119808
2016-09-07T10:41:22.096Z,119040
2016-09-07T10:42:22.086Z,115424
2016-09-07T10:43:22.107Z,113280
2016-09-07T10:44:22.084Z,111840
2016-09-07T10:45:22.073Z,111200
2016-09-07T10:46:22.102Z,108640
2016-09-07T10:47:22.093Z,107264
2016-09-07T10:48:22.106Z,103936
2016-09-07T10:49:22.103Z,98112
2016-09-07T10:50:22.100Z,89504
2016-09-07T10:51:22.093Z,87296
2016-09-07T10:52:22.110Z,81600
2016-09-07T10:53:22.110Z,77600
2016-09-07T10:54:22.092Z,72672
2016-09-07T10:55:22.064Z,67488
2016-09-07T10:56:22.069Z,66112
2016-09-07T10:57:22.091Z,65728
2016-09-07T10:58:22.055Z,67520
2016-09-07T10:59:22.080Z,72160
2016-09-07T11:00:22.119Z,78432
2016-09-07T11:01:22.074Z,88448
2016-09-07T11:02:22.072Z,102048
2016-09-07T11:03:22.039Z,110912
2016-09-07T11:04:22.090Z,113440
2016-09-07T11:05:22.045Z,104224
2016-09-07T11:06:22.074Z,91424
2016-09-07T11:07:22.057Z,80768
2016-09-07T11:08:22.039Z,73728
2016-09-07T11:09:22.065Z,73696
2016-09-07T11:10:22.058Z,75104
2016-09-07T11:11:22.353Z,80928
2016-09-07T11:12:22.058Z,86048
2016-09-07T11:13:22.051Z,100128
2016-09-07T11:14:22.027Z,106912
2016-09-07T11:15:22.030Z,97472
2016-09-07T11:16:22.038Z,84896
2016-09-07T11:17:22.031Z,73344
2016-09-07T11:18:22.033Z,67584
2016-09-07T11:19:22.043Z,73984
2016-09-07T11:20:22.031Z,78336
2016-09-07T11:21:22.019Z,81504
2016-09-07T11:22:22.024Z,90080
2016-09-07T11:23:22.027Z,88224
2016-09-07T11:24:22.035Z,83264
2016-09-07T11:25:22.017Z,91808
2016-09-07T11:26:21.988Z,95232
2016-09-07T11:27:22.004Z,86144
2016-09-07T11:28:22.003Z,82272
2016-09-07T11:29:22.024Z,86752
2016-09-07T11:30:21.971Z,87136
2016-09-07T11:31:21.968Z,81472
2016-09-07T11:32:22.011Z,74144
2016-09-07T11:33:21.986Z,74624
2016-09-07T11:34:21.968Z,76736
2016-09-07T11:35:21.975Z,76896
2016-09-07T11:36:21.974Z,90176
2016-09-07T11:37:21.974Z,119744
2016-09-07T11:38:21.975Z,135712
2016-09-07T11:39:21.988Z,127104
2016-09-07T11:40:21.950Z,108288
2016-09-07T11:41:21.954Z,85120
2016-09-07T11:42:21.955Z,77792
2016-09-07T11:43:21.967Z,79360
2016-09-07T11:44:21.930Z,81792
2016-09-07T11:45:21.919Z,84384
2016-09-07T11:46:21.966Z,86656
2016-09-07T11:47:21.910Z,90624
2016-09-07T11:48:21.933Z,94464
2016-09-07T11:49:21.924Z,95968
2016-09-07T11:50:21.919Z,98592
2016-09-07T11:51:21.899Z,101536
2016-09-07T11:52:21.923Z,101952
2016-09-07T11:53:21.919Z,101408
2016-09-07T11:54:21.897Z,99872
2016-09-07T11:55:21.924Z,99936
2016-09-07T11:56:21.921Z,99680
2016-09-07T11:57:21.918Z,99296
2016-09-07T11:58:21.931Z,98112
2016-09-07T11:59:21.900Z,97888
2016-09-07T12:00:21.902Z,100288
2016-09-07T12:01:21.892Z,100992
2016-09-07T12:02:21.873Z,101568
2016-09-07T12:03:21.894Z,102944
2016-09-07T12:04:21.880Z,104800
2016-09-07T12:05:22.214Z,107456
2016-09-07T12:06:21.876Z,109248
2016-09-07T12:07:21.882Z,110656
2016-09-07T12:08:21.895Z,110592
2016-09-07T12:09:21.873Z,109472
2016-09-07T12:10:21.867Z,107232
2016-09-07T12:11:21.873Z,106560
2016-09-07T12:12:21.860Z,105440
2016-09-07T12:13:21.858Z,103520
2016-09-07T12:14:21.841Z,101856
2016-09-07T12:15:21.841Z,99360
2016-09-07T12:16:21.839Z,98112
2016-09-07T12:17:21.864Z,98144
2016-09-07T12:18:21.833Z,98976
2016-09-07T12:19:21.852Z,99904
2016-09-07T12:20:21.831Z,101088
2016-09-07T12:21:21.852Z,101344
2016-09-07T12:22:21.837Z,102336
2016-09-07T12:23:21.847Z,103200
2016-09-07T12:24:21.808Z,103712
2016-09-07T12:25:21.817Z,102400
2016-09-07T12:26:22.137Z,101120
2016-09-07T12:27:21.838Z,102688
2016-09-07T12:28:21.805Z,106688
2016-09-07T12:29:21.812Z,107904
2016-09-07T12:30:21.835Z,106208
2016-09-07T12:31:21.833Z,102272
2016-09-07T12:32:21.779Z,97824
2016-09-07T12:33:21.792Z,91328
2016-09-07T12:34:21.785Z,85568
2016-09-07T12:35:21.790Z,82784
2016-09-07T12:36:21.802Z,79360
2016-09-07T12:37:21.803Z,73472
2016-09-07T12:38:21.790Z,77760
2016-09-07T12:39:21.779Z,100000
2016-09-07T12:40:21.781Z,126624
2016-09-07T12:41:21.751Z,143840
2016-09-07T12:42:21.779Z,129216
2016-09-07T12:43:21.763Z,101024
2016-09-07T12:44:21.765Z,88416
2016-09-07T12:45:21.742Z,86080
2016-09-07T12:46:21.755Z,83840
2016-09-07T12:47:21.759Z,80320
2016-09-07T12:48:21.750Z,75456
2016-09-07T12:49:22.058Z,77152
2016-09-07T12:50:21.743Z,78496
2016-09-07T12:51:21.756Z,80480
2016-09-07T12:52:21.723Z,82816
2016-09-07T12:53:21.741Z,84928
2016-09-07T12:54:21.722Z,83520
2016-09-07T12:55:21.726Z,82176
2016-09-07T12:56:21.711Z,81248
2016-09-07T12:57:21.725Z,80352
2016-09-07T12:58:21.733Z,82528
2016-09-07T12:59:21.711Z,82752
2016-09-07T13:00:21.697Z,81888
2016-09-07T13:01:21.694Z,82944
2016-09-07T13:02:21.699Z,83680
2016-09-07T13:03:21.711Z,85440
2016-09-07T13:04:21.689Z,89184
2016-09-07T13:05:21.706Z,90208
2016-09-07T13:06:21.685Z,88704
2016-09-07T13:07:21.676Z,87200
2016-09-07T13:08:21.675Z,86688
2016-09-07T13:09:21.668Z,87200
2016-09-07T13:10:21.673Z,83232
2016-09-07T13:11:21.660Z,78464
2016-09-07T13:12:21.658Z,79008
2016-09-07T13:13:21.643Z,80832
2016-09-07T13:14:21.972Z,79648
2016-09-07T13:15:21.655Z,78368
2016-09-07T13:16:21.975Z,78528
2016-09-07T13:17:21.639Z,81408
2016-09-07T13:18:21.654Z,84064
2016-09-07T13:19:21.657Z,86208
2016-09-07T13:20:21.643Z,88032
2016-09-07T13:21:21.626Z,90336
2016-09-07T13:22:21.631Z,88992
2016-09-07T13:23:21.630Z,85920
2016-09-07T13:24:21.637Z,81472
2016-09-07T13:25:21.617Z,79584
2016-09-07T13:26:21.607Z,79136
2016-09-07T13:27:21.921Z,75520